createdAt,value
2022-10-08T00:02:15.130Z,54.11
2022-10-08T00:04:43.772Z,54.25
2022-10-08T00:07:12.015Z,54.34
2022-10-08T00:09:40.199Z,54.51
2022-10-08T00:12:08.593Z,54.37
2022-10-08T00:14:38.418Z,54.33
2022-10-08T00:17:06.618Z,54.27
2022-10-08T00:19:35.375Z,54.24
2022-10-08T00:22:03.474Z,54.39
2022-10-08T00:24:32.089Z,54.45
2022-10-08T00:27:00.526Z,54.47
2022-10-08T00:29:28.722Z,54.49
2022-10-08T00:31:58.511Z,54.56
2022-10-08T00:34:27.523Z,54.58
2022-10-08T00:36:56.827Z,54.21
2022-10-08T00:39:26.232Z,54.96
2022-10-08T00:41:57.204Z,54.83
2022-10-08T00:45:02.411Z,55.32
2022-10-08T00:47:46.232Z,57.15
2022-10-08T00:50:19.139Z,56.68
2022-10-08T00:52:51.202Z,55.82
2022-10-08T00:55:22.245Z,55.49
2022-10-08T00:57:52.252Z,55.20
2022-10-08T01:00:23.311Z,55.32
2022-10-08T01:02:53.320Z,55.30
2022-10-08T01:05:29.208Z,55.76
2022-10-08T01:08:05.349Z,56.15
2022-10-08T01:10:40.183Z,56.49
2022-10-08T01:13:20.662Z,56.77
2022-10-08T01:15:56.939Z,57.20
2022-10-08T01:18:34.801Z,56.49
2022-10-08T01:21:10.077Z,56.12
2022-10-08T01:23:53.159Z,56.26
2022-10-08T01:26:42.411Z,56.57
2022-10-08T01:29:18.274Z,56.74
2022-10-08T01:31:51.948Z,56.59
2022-10-08T01:34:26.843Z,56.42
2022-10-08T01:36:58.264Z,56.59
2022-10-08T01:39:30.649Z,56.11
2022-10-08T01:42:03.251Z,56.34
2022-10-08T01:44:38.873Z,56.04
2022-10-08T01:47:11.551Z,57.11
2022-10-08T01:49:45.482Z,57.54
2022-10-08T01:52:21.315Z,57.35
2022-10-08T01:54:52.666Z,57.46
2022-10-08T01:57:21.792Z,57.45
2022-10-08T01:59:56.415Z,57.18
2022-10-08T02:02:27.336Z,58.01
2022-10-08T02:04:57.357Z,57.59
2022-10-08T02:07:29.055Z,57.27
2022-10-08T02:10:06.535Z,56.57
2022-10-08T02:12:35.951Z,57.88
2022-10-08T02:15:08.190Z,57.36
2022-10-08T02:17:41.393Z,57.99
2022-10-08T02:20:18.569Z,57.34
2022-10-08T02:22:54.564Z,57.35
2022-10-08T02:25:30.337Z,56.89
2022-10-08T02:28:07.249Z,57.55
2022-10-08T02:30:42.005Z,57.27
2022-10-08T02:33:15.690Z,57.13
2022-10-08T02:35:49.235Z,57.54
2022-10-08T02:38:22.338Z,57.54
2022-10-08T02:40:54.070Z,57.19
2022-10-08T02:43:27.033Z,57.52
2022-10-08T02:46:01.375Z,56.81
2022-10-08T02:48:31.893Z,56.65
2022-10-08T02:51:06.315Z,56.30
2022-10-08T02:53:35.411Z,56.43
2022-10-08T02:56:14.743Z,56.36
2022-10-08T02:58:44.050Z,56.89
2022-10-08T03:01:19.103Z,56.68
2022-10-08T03:03:52.090Z,58.31
2022-10-08T03:06:21.279Z,58.75
2022-10-08T03:08:51.022Z,57.54
2022-10-08T03:11:19.387Z,57.27
2022-10-08T03:13:50.725Z,56.91
2022-10-08T03:16:23.577Z,58.24
2022-10-08T03:18:54.056Z,57.52
2022-10-08T03:21:22.836Z,57.02
2022-10-08T03:23:51.073Z,57.33
2022-10-08T03:26:19.516Z,57.59
2022-10-08T03:28:47.930Z,57.58
2022-10-08T03:31:16.361Z,57.11
2022-10-08T03:33:50.734Z,56.87
2022-10-08T03:36:19.294Z,57.33
2022-10-08T03:38:48.075Z,57.12
2022-10-08T03:41:17.210Z,56.89
2022-10-08T03:43:46.313Z,56.87
2022-10-08T03:46:16.240Z,56.70
2022-10-08T03:48:49.042Z,57.24
2022-10-08T03:51:19.136Z,56.67
2022-10-08T03:53:47.713Z,57.23
2022-10-08T03:56:18.243Z,57.07
2022-10-08T03:58:47.430Z,57.18
2022-10-08T04:01:17.188Z,56.82
2022-10-08T04:03:46.997Z,56.59
2022-10-08T04:06:15.875Z,56.59
2022-10-08T04:08:44.350Z,56.63
2022-10-08T04:11:15.509Z,56.62
2022-10-08T04:13:44.242Z,56.84
2022-10-08T04:16:15.025Z,56.74
2022-10-08T04:18:44.125Z,57.32
2022-10-08T04:21:15.905Z,56.88
2022-10-08T04:23:45.197Z,57.00
2022-10-08T04:26:15.416Z,57.02
2022-10-08T04:28:45.388Z,57.43
2022-10-08T04:31:17.341Z,57.22
2022-10-08T04:33:46.525Z,57.91
2022-10-08T04:36:17.557Z,58.87
2022-10-08T04:38:46.545Z,58.60
2022-10-08T04:41:17.190Z,58.01
2022-10-08T04:43:46.498Z,58.98
2022-10-08T04:46:16.239Z,58.50
2022-10-08T04:48:48.578Z,58.53
2022-10-08T04:51:19.951Z,58.80
2022-10-08T04:53:48.151Z,58.75
2022-10-08T04:56:19.269Z,59.17
2022-10-08T04:58:48.264Z,59.24
2022-10-08T05:01:18.862Z,59.10
2022-10-08T05:03:49.254Z,59.22
2022-10-08T05:06:20.779Z,59.19
2022-10-08T05:08:49.883Z,59.06
2022-10-08T05:11:19.279Z,59.26
2022-10-08T05:13:51.150Z,59.66
2022-10-08T05:16:19.987Z,60.33
2022-10-08T05:18:50.752Z,59.48
2022-10-08T05:21:21.950Z,58.75
2022-10-08T05:23:55.234Z,59.02
2022-10-08T05:26:41.533Z,59.40
2022-10-08T05:29:13.945Z,59.47
2022-10-08T05:31:42.068Z,59.46
2022-10-08T05:34:16.025Z,59.65
2022-10-08T05:36:45.805Z,60.33
2022-10-08T05:39:14.078Z,60.02
2022-10-08T05:41:42.885Z,59.63
2022-10-08T05:44:12.072Z,59.31
2022-10-08T05:46:41.048Z,59.24
2022-10-08T05:49:15.630Z,59.54
2022-10-08T05:51:45.424Z,60.37
2022-10-08T05:54:13.548Z,61.63
2022-10-08T05:56:41.678Z,60.46
2022-10-08T05:59:16.822Z,60.13
2022-10-08T06:01:45.510Z,61.66
2022-10-08T06:04:14.053Z,62.01
2022-10-08T06:06:44.938Z,61.17
2022-10-08T06:09:16.968Z,61.39
2022-10-08T06:11:45.629Z,60.47
2022-10-08T06:14:16.951Z,60.54
2022-10-08T06:16:45.131Z,61.02
2022-10-08T06:19:14.184Z,60.95
2022-10-08T06:21:42.395Z,60.31
2022-10-08T06:24:13.171Z,60.37
2022-10-08T06:26:44.437Z,60.76
2022-10-08T06:29:16.682Z,60.43
2022-10-08T06:31:46.035Z,61.69
2022-10-08T06:34:14.613Z,60.75
2022-10-08T06:36:42.743Z,60.06
2022-10-08T06:39:14.320Z,59.97
2022-10-08T06:41:43.824Z,60.32
2022-10-08T06:44:14.302Z,60.23
2022-10-08T06:46:42.754Z,59.63
2022-10-08T06:49:11.423Z,59.74
2022-10-08T06:51:39.916Z,59.47
2022-10-08T06:54:08.813Z,59.39
2022-10-08T06:56:37.504Z,59.29
2022-10-08T06:59:07.838Z,59.51
2022-10-08T07:01:36.748Z,59.14
2022-10-08T07:04:07.073Z,58.89
2022-10-08T07:06:35.856Z,59.11
2022-10-08T07:09:06.876Z,58.84
2022-10-08T07:11:35.361Z,58.86
2022-10-08T07:14:04.270Z,58.85
2022-10-08T07:16:33.933Z,58.68
2022-10-08T07:19:02.171Z,58.50
2022-10-08T07:21:31.462Z,58.45
2022-10-08T07:24:01.592Z,58.40
2022-10-08T07:26:32.440Z,58.30
2022-10-08T07:29:02.744Z,58.40
2022-10-08T07:31:34.308Z,58.17
2022-10-08T07:34:04.687Z,57.89
2022-10-08T07:36:33.324Z,57.65
2022-10-08T07:39:03.495Z,57.55
2022-10-08T07:41:32.768Z,57.67
2022-10-08T07:44:03.286Z,57.44
2022-10-08T07:46:35.704Z,57.31
2022-10-08T07:49:05.309Z,57.20
2022-10-08T07:51:35.434Z,56.90
2022-10-08T07:54:06.350Z,57.03
2022-10-08T07:56:36.260Z,56.82
2022-10-08T07:59:05.468Z,56.61
2022-10-08T08:01:36.033Z,56.55
2022-10-08T08:04:07.245Z,56.24
2022-10-08T08:06:40.489Z,55.98
2022-10-08T08:09:09.644Z,55.46
2022-10-08T08:11:39.662Z,55.79
2022-10-08T08:14:08.149Z,55.25
2022-10-08T08:16:38.055Z,55.40
2022-10-08T08:19:06.378Z,55.25
2022-10-08T08:21:36.709Z,54.98
2022-10-08T08:24:08.245Z,54.56
2022-10-08T08:26:38.905Z,54.28
2022-10-08T08:29:10.982Z,54.22
2022-10-08T08:31:43.424Z,53.94
2022-10-08T08:34:14.982Z,52.90
2022-10-08T08:36:45.656Z,53.59
2022-10-08T08:39:17.312Z,53.27
2022-10-08T08:42:00.491Z,53.18
2022-10-08T08:44:32.150Z,50.80
2022-10-08T08:47:13.669Z,52.66
2022-10-08T08:49:45.295Z,52.15
2022-10-08T08:52:16.441Z,52.83
2022-10-08T08:54:49.253Z,52.25
2022-10-08T08:57:32.655Z,51.87
2022-10-08T09:00:05.542Z,49.97
2022-10-08T09:02:39.468Z,51.67
2022-10-08T09:05:12.088Z,51.42
2022-10-08T09:07:45.432Z,50.66
2022-10-08T09:10:18.828Z,50.07
2022-10-08T09:12:49.236Z,48.92
2022-10-08T09:15:20.712Z,50.74
2022-10-08T09:17:53.199Z,48.61
2022-10-08T09:20:24.237Z,49.85
2022-10-08T09:22:54.048Z,48.94
2022-10-08T09:25:24.485Z,50.38
2022-10-08T09:27:55.418Z,50.27
2022-10-08T09:30:34.336Z,49.41
2022-10-08T09:33:17.463Z,47.08
2022-10-08T09:35:49.343Z,47.00
2022-10-08T09:38:26.226Z,49.30
2022-10-08T09:41:03.190Z,48.35
2022-10-08T09:43:31.981Z,46.93
2022-10-08T09:46:03.016Z,48.57
2022-10-08T09:48:32.948Z,48.72
2022-10-08T09:51:03.788Z,49.67
2022-10-08T09:53:41.555Z,49.80
2022-10-08T09:56:11.927Z,48.10
2022-10-08T09:58:50.528Z,49.21
2022-10-08T10:01:20.112Z,48.53
2022-10-08T10:03:56.484Z,49.75
2022-10-08T10:06:29.785Z,48.66
2022-10-08T10:09:03.132Z,48.86
2022-10-08T10:11:37.791Z,49.07
2022-10-08T10:14:15.331Z,49.32
2022-10-08T10:19:19.377Z,49.16
2022-10-08T10:21:53.596Z,48.24
2022-10-08T10:24:37.257Z,49.50
2022-10-08T10:27:10.627Z,48.28
2022-10-08T10:29:49.854Z,49.90
2022-10-08T10:32:23.734Z,49.21
2022-10-08T10:35:00.932Z,48.67
2022-10-08T10:37:37.010Z,48.41
2022-10-08T10:40:30.981Z,49.38
2022-10-08T10:43:15.122Z,48.70
2022-10-08T10:45:49.457Z,48.74
2022-10-08T10:48:17.813Z,49.63
2022-10-08T10:51:00.028Z,49.94
2022-10-08T10:53:37.322Z,48.81
2022-10-08T10:56:14.188Z,48.83
2022-10-08T10:59:01.794Z,49.29
2022-10-08T11:01:41.372Z,48.27
2022-10-08T11:04:17.826Z,48.21
2022-10-08T11:07:03.384Z,48.51
2022-10-08T11:09:46.840Z,47.93
2022-10-08T11:12:28.404Z,47.58
2022-10-08T11:15:06.544Z,47.36
2022-10-08T11:17:45.094Z,48.06
2022-10-08T11:20:29.700Z,48.14
2022-10-08T11:23:08.478Z,47.99
2022-10-08T11:25:56.026Z,47.75
2022-10-08T11:28:49.773Z,48.85
2022-10-08T11:31:28.767Z,47.98
2022-10-08T11:33:58.364Z,48.71
2022-10-08T11:36:34.171Z,48.95
2022-10-08T11:39:14.437Z,48.30
2022-10-08T11:41:49.254Z,48.03
2022-10-08T11:44:18.791Z,48.75
2022-10-08T11:46:47.052Z,49.21
2022-10-08T11:49:54.158Z,49.01
2022-10-08T11:52:22.716Z,47.76
2022-10-08T11:54:55.902Z,48.59
2022-10-08T12:00:39.691Z,49.18
2022-10-08T12:03:23.251Z,47.93
2022-10-08T12:05:53.571Z,48.34
2022-10-08T12:08:54.129Z,49.26
2022-10-08T12:11:48.486Z,48.51
2022-10-08T12:14:49.213Z,48.55
2022-10-08T12:17:18.179Z,49.01
2022-10-08T12:20:04.302Z,50.01
2022-10-08T12:23:01.211Z,49.28
2022-10-08T12:25:37.289Z,49.49
2022-10-08T12:28:43.001Z,50.14
2022-10-08T12:31:29.401Z,49.25
2022-10-08T12:34:13.077Z,49.49
2022-10-08T12:36:50.823Z,50.01
2022-10-08T12:39:29.932Z,49.68
2022-10-08T12:42:10.662Z,49.52
2022-10-08T12:44:51.411Z,48.87
2022-10-08T12:47:35.267Z,48.76
2022-10-08T12:50:16.782Z,48.56
2022-10-08T12:52:46.063Z,48.83
2022-10-08T12:55:18.720Z,50.19
2022-10-08T12:57:49.891Z,49.50
2022-10-08T13:00:23.862Z,49.64
2022-10-08T13:03:04.986Z,48.85
2022-10-08T13:05:35.363Z,48.22
2022-10-08T13:08:19.429Z,49.53
2022-10-08T13:10:47.707Z,48.27
2022-10-08T13:13:50.640Z,49.57
2022-10-08T13:16:21.910Z,48.64
2022-10-08T13:18:54.001Z,49.42
2022-10-08T13:21:37.322Z,49.25
2022-10-08T13:24:30.644Z,49.06
2022-10-08T13:26:58.871Z,48.74
2022-10-08T13:29:33.841Z,49.38
2022-10-08T13:32:05.981Z,49.03
2022-10-08T13:34:42.498Z,49.09
2022-10-08T13:37:14.736Z,48.03
2022-10-08T13:39:51.691Z,48.67
2022-10-08T13:42:22.555Z,48.85
2022-10-08T13:44:52.388Z,48.85
2022-10-08T13:47:22.639Z,48.92
2022-10-08T13:49:55.459Z,48.87
2022-10-08T13:52:25.782Z,48.62
2022-10-08T13:54:59.146Z,48.35
2022-10-08T13:57:27.569Z,48.42
2022-10-08T13:59:56.426Z,48.09
2022-10-08T14:02:24.676Z,48.11
2022-10-08T14:04:54.530Z,47.74
2022-10-08T14:07:26.219Z,46.98
2022-10-08T14:09:57.182Z,47.20
2022-10-08T14:12:30.034Z,47.20
2022-10-08T14:14:58.578Z,45.92
2022-10-08T14:17:26.821Z,46.98
2022-10-08T14:19:56.540Z,47.16
2022-10-08T14:22:25.504Z,45.99
2022-10-08T14:24:53.747Z,46.64
2022-10-08T14:27:21.963Z,46.90
2022-10-08T14:29:50.499Z,46.64
2022-10-08T14:32:18.781Z,45.65
2022-10-08T14:34:46.958Z,45.88
2022-10-08T14:37:16.942Z,46.20
2022-10-08T14:39:45.346Z,45.66
2022-10-08T14:42:13.531Z,46.19
2022-10-08T14:44:41.975Z,45.15
2022-10-08T14:47:10.175Z,46.00
2022-10-08T14:49:38.991Z,46.05
2022-10-08T14:52:07.591Z,45.37
2022-10-08T14:54:37.278Z,45.51
2022-10-08T14:57:05.540Z,45.44
2022-10-08T14:59:39.052Z,45.87
2022-10-08T15:02:10.726Z,45.81
2022-10-08T15:04:39.393Z,45.36
2022-10-08T15:07:07.622Z,46.05
2022-10-08T15:09:40.497Z,46.45
2022-10-08T15:12:09.451Z,45.56
2022-10-08T15:14:38.494Z,46.11
2022-10-08T15:17:06.887Z,46.27
2022-10-08T15:19:35.525Z,46.28
2022-10-08T15:22:03.810Z,45.98
2022-10-08T15:24:32.022Z,46.15
2022-10-08T15:27:01.948Z,46.05
2022-10-08T15:29:30.226Z,46.43
2022-10-08T15:31:58.437Z,46.08
2022-10-08T15:34:26.954Z,47.00
2022-10-08T15:36:55.952Z,46.74
2022-10-08T15:39:24.499Z,46.96
2022-10-08T15:41:54.330Z,46.50
2022-10-08T15:44:25.503Z,46.73
2022-10-08T15:46:59.785Z,46.50
2022-10-08T15:49:31.182Z,46.50
2022-10-08T15:52:00.380Z,46.57
2022-10-08T15:54:28.599Z,46.95
2022-10-08T15:56:56.952Z,47.11
2022-10-08T15:59:26.800Z,46.91
2022-10-08T16:01:55.121Z,47.03
2022-10-08T16:04:23.856Z,46.94
2022-10-08T16:06:52.367Z,47.07
2022-10-08T16:09:22.036Z,47.14
2022-10-08T16:11:51.751Z,47.27
2022-10-08T16:14:22.055Z,46.97
2022-10-08T16:16:52.872Z,46.98
2022-10-08T16:19:23.396Z,46.89
2022-10-08T16:21:53.880Z,46.90
2022-10-08T16:24:22.370Z,46.79
2022-10-08T16:26:50.613Z,46.90
2022-10-08T16:29:19.797Z,46.69
2022-10-08T16:31:48.596Z,46.82
2022-10-08T16:34:20.410Z,46.69
2022-10-08T16:36:49.403Z,46.73
2022-10-08T16:39:19.736Z,46.83
2022-10-08T16:41:48.886Z,47.04
2022-10-08T16:44:19.263Z,47.20
2022-10-08T16:46:50.506Z,47.14
2022-10-08T16:49:25.334Z,47.20
2022-10-08T16:51:55.211Z,47.25
2022-10-08T16:54:23.798Z,47.18
2022-10-08T16:56:51.985Z,47.15
2022-10-08T16:59:22.610Z,47.15
2022-10-08T17:01:52.810Z,47.21
2022-10-08T17:04:24.252Z,47.27
2022-10-08T17:06:53.424Z,47.34
2022-10-08T17:09:21.732Z,47.29
2022-10-08T17:11:50.066Z,47.36
2022-10-08T17:14:18.605Z,47.41
2022-10-08T17:16:46.994Z,47.50
2022-10-08T17:19:15.424Z,47.45
2022-10-08T17:21:45.470Z,47.55
2022-10-08T17:24:13.856Z,47.65
2022-10-08T17:26:43.100Z,47.86
2022-10-08T17:29:12.926Z,47.66
2022-10-08T17:31:41.360Z,47.85
2022-10-08T17:34:10.204Z,48.14
2022-10-08T17:36:41.578Z,48.25
2022-10-08T17:39:13.757Z,48.22
2022-10-08T17:41:43.897Z,48.41
2022-10-08T17:44:12.670Z,48.35
2022-10-08T17:46:45.474Z,48.19
2022-10-08T17:49:14.912Z,48.25
2022-10-08T17:51:43.350Z,48.27
2022-10-08T17:54:15.617Z,48.26
2022-10-08T17:56:44.437Z,48.54
2022-10-08T17:59:15.215Z,48.47
2022-10-08T18:01:45.413Z,48.58
2022-10-08T18:04:16.737Z,48.80
2022-10-08T18:06:47.060Z,48.73
2022-10-08T18:09:19.952Z,48.69
2022-10-08T18:11:52.014Z,48.86
2022-10-08T18:14:21.730Z,48.94
2022-10-08T18:16:50.568Z,48.86
2022-10-08T18:19:19.676Z,49.00
2022-10-08T18:21:48.316Z,49.08
2022-10-08T18:24:19.001Z,49.17
2022-10-08T18:26:47.589Z,49.33
2022-10-08T18:29:16.358Z,49.46
2022-10-08T18:31:46.748Z,49.47
2022-10-08T18:34:17.299Z,49.52
2022-10-08T18:36:46.397Z,49.49
2022-10-08T18:39:17.290Z,49.60
2022-10-08T18:41:48.439Z,49.82
2022-10-08T18:44:19.690Z,49.90
2022-10-08T18:46:48.388Z,49.96
2022-10-08T18:49:18.909Z,49.97
2022-10-08T18:51:47.143Z,50.39
2022-10-08T18:54:15.582Z,50.93
2022-10-08T18:56:44.063Z,51.14
2022-10-08T18:59:15.777Z,50.84
2022-10-08T19:01:46.537Z,50.80
2022-10-08T19:04:18.139Z,50.85
2022-10-08T19:06:47.785Z,51.11
2022-10-08T19:09:16.726Z,51.06
2022-10-08T19:11:46.770Z,50.94
2022-10-08T19:14:19.384Z,51.05
2022-10-08T19:16:48.609Z,50.97
2022-10-08T19:19:19.245Z,51.02
2022-10-08T19:21:48.354Z,51.44
2022-10-08T19:24:19.107Z,51.23
2022-10-08T19:26:48.683Z,51.12
2022-10-08T19:29:21.605Z,51.17
2022-10-08T19:31:50.570Z,51.41
2022-10-08T19:34:20.992Z,51.43
2022-10-08T19:36:50.367Z,51.27
2022-10-08T19:39:22.117Z,51.12
2022-10-08T19:41:50.744Z,51.28
2022-10-08T19:44:21.324Z,51.46
2022-10-08T19:46:49.871Z,51.87
2022-10-08T19:49:19.016Z,51.83
2022-10-08T19:51:47.495Z,51.84
2022-10-08T19:54:17.106Z,51.61
2022-10-08T19:56:45.820Z,51.61
2022-10-08T19:59:14.549Z,51.80
2022-10-08T20:01:44.769Z,51.74
2022-10-08T20:04:14.062Z,51.74
2022-10-08T20:06:43.637Z,51.91
2022-10-08T20:09:13.526Z,51.77
2022-10-08T20:11:43.332Z,51.69
2022-10-08T20:14:12.432Z,51.95
2022-10-08T20:16:42.542Z,52.30
2022-10-08T20:19:17.609Z,52.62
2022-10-08T20:21:46.222Z,53.08
2022-10-08T20:24:15.181Z,52.92
2022-10-08T20:26:44.939Z,52.93
2022-10-08T20:29:15.225Z,53.64
2022-10-08T20:31:46.212Z,53.14
2022-10-08T20:34:18.538Z,52.93
2022-10-08T20:36:47.846Z,52.63
2022-10-08T20:39:21.094Z,52.78
2022-10-08T20:41:50.180Z,52.62
2022-10-08T20:44:18.540Z,52.74
2022-10-08T20:46:47.129Z,52.69
2022-10-08T20:49:17.031Z,52.71
2022-10-08T20:51:45.554Z,52.57
2022-10-08T20:54:16.011Z,52.59
2022-10-08T20:56:44.986Z,52.85
2022-10-08T20:59:16.661Z,52.56
2022-10-08T21:01:46.285Z,52.67
2022-10-08T21:04:14.806Z,52.47
2022-10-08T21:06:46.913Z,52.61
2022-10-08T21:09:17.546Z,52.68
2022-10-08T21:11:47.061Z,52.77
2022-10-08T21:14:18.123Z,52.71
2022-10-08T21:16:46.899Z,52.72
2022-10-08T21:19:16.696Z,52.86
2022-10-08T21:21:46.797Z,52.78
2022-10-08T21:24:16.927Z,52.85
2022-10-08T21:26:45.306Z,52.68
2022-10-08T21:29:15.393Z,52.67
2022-10-08T21:31:44.246Z,52.59
2022-10-08T21:34:13.771Z,52.68
2022-10-08T21:36:42.776Z,52.68
2022-10-08T21:39:16.651Z,52.91
2022-10-08T21:41:45.181Z,53.31
2022-10-08T21:44:13.683Z,52.75
2022-10-08T21:46:43.381Z,52.87
2022-10-08T21:49:14.340Z,52.84
2022-10-08T21:51:42.821Z,53.07
2022-10-08T21:54:13.867Z,53.00
2022-10-08T21:56:42.918Z,52.97
2022-10-08T21:59:14.007Z,53.06
2022-10-08T22:01:44.052Z,52.82
2022-10-08T22:04:15.468Z,52.93
2022-10-08T22:06:46.012Z,52.86
2022-10-08T22:09:18.438Z,53.21
2022-10-08T22:11:46.985Z,53.50
2022-10-08T22:14:16.023Z,52.95
2022-10-08T22:16:44.386Z,53.44
2022-10-08T22:19:13.141Z,53.82
2022-10-08T22:21:41.939Z,53.69
2022-10-08T22:24:10.313Z,53.50
2022-10-08T22:26:41.823Z,53.88
2022-10-08T22:29:11.195Z,53.87
2022-10-08T22:31:39.929Z,54.04
2022-10-08T22:34:08.425Z,53.93
2022-10-08T22:36:39.870Z,53.74
2022-10-08T22:39:08.952Z,53.63
2022-10-08T22:41:39.258Z,53.61
2022-10-08T22:44:07.718Z,53.59
2022-10-08T22:46:38.462Z,53.38
2022-10-08T22:49:09.229Z,53.37
2022-10-08T22:51:38.344Z,53.21
2022-10-08T22:54:07.434Z,53.03
2022-10-08T22:56:35.800Z,53.34
2022-10-08T22:59:05.501Z,53.17
2022-10-08T23:01:34.017Z,53.09
2022-10-08T23:04:02.312Z,53.02
2022-10-08T23:06:33.015Z,53.21
2022-10-08T23:09:03.336Z,53.35
2022-10-08T23:11:32.746Z,53.51
2022-10-08T23:14:01.737Z,53.27
2022-10-08T23:16:34.019Z,53.32
2022-10-08T23:19:05.051Z,53.51
2022-10-08T23:21:34.132Z,53.36
2022-10-08T23:24:03.126Z,53.58
2022-10-08T23:26:31.764Z,53.83
2022-10-08T23:29:01.760Z,53.43
2022-10-08T23:31:33.272Z,53.50
2022-10-08T23:34:02.422Z,53.72
2022-10-08T23:36:32.883Z,53.51
2022-10-08T23:39:01.519Z,53.44
2022-10-08T23:41:30.134Z,53.75
2022-10-08T23:43:58.926Z,53.71
2022-10-08T23:46:29.065Z,53.86
2022-10-08T23:49:00.294Z,54.00
2022-10-08T23:51:31.592Z,54.35
2022-10-08T23:54:01.103Z,53.99
2022-10-08T23:56:29.762Z,54.42
2022-10-08T23:58:58.344Z,54.06
